Terminal Aerodrome Forecast
Issued by NWS

Home | Current Version | Previous Version | Graphics & Text | Print | Product List | Glossary Off
Versions: 1 2 3 4 5 6 7 8 9 10 11 12 13 14 15 16 17 18 19 20 21 22 23 24 25 26 27 28

000
FTUS43 KLOT 241120
TAFMDW
TAF
KMDW 241120Z 2412/2512 28012G17KT 5SM -RA OVC012
     FM241400 30016G25KT 4SM RA SCT008 OVC010
     FM242000 31016G27KT P6SM VCSH SCT012 OVC020
     FM250000 29014G23KT P6SM SCT025 BKN035
     FM250500 28010KT P6SM FEW035=

USA.gov is the U.S. government's official web portal to all federal, state and local government web resources and services.